createdAt,value
2017-01-17T00:00:07.740Z,-2.55
2017-01-17T00:00:34.229Z,-2.57
2017-01-17T00:00:55.925Z,-2.57
2017-01-17T00:01:17.654Z,-2.59
2017-01-17T00:02:10.605Z,-2.59
2017-01-17T00:02:32.319Z,-2.59
2017-01-17T00:02:58.825Z,-2.58
2017-01-17T00:03:20.528Z,-2.58
2017-01-17T00:03:42.224Z,-2.60
2017-01-17T00:04:03.939Z,-2.59
2017-01-17T00:04:25.641Z,-2.58
2017-01-17T00:04:52.121Z,-2.56
2017-01-17T00:05:13.850Z,-2.53
2017-01-17T00:05:35.548Z,-2.53
2017-01-17T00:06:02.016Z,-2.55
2017-01-17T00:06:23.717Z,-2.52
2017-01-17T00:06:45.403Z,-2.57
2017-01-17T00:07:11.887Z,-2.57
2017-01-17T00:07:33.579Z,-2.60
2017-01-17T00:07:55.289Z,-2.57
2017-01-17T00:08:21.763Z,-2.57
2017-01-17T00:08:43.461Z,-2.57
2017-01-17T00:09:09.929Z,-2.58
2017-01-17T00:09:31.622Z,-2.59
2017-01-17T00:09:58.092Z,-2.60
2017-01-17T00:10:19.788Z,-2.59
2017-01-17T00:10:46.267Z,-2.58
2017-01-17T00:11:07.951Z,-2.56
2017-01-17T00:11:34.422Z,-2.60
2017-01-17T00:11:56.140Z,-2.68
2017-01-17T00:12:17.851Z,-2.68
2017-01-17T00:12:39.551Z,-2.67
2017-01-17T00:13:01.256Z,-2.66
2017-01-17T00:13:22.984Z,-2.63
2017-01-17T00:14:25.527Z,-2.65
2017-01-17T00:14:47.205Z,-2.66
2017-01-17T00:15:23.237Z,-2.69
2017-01-17T00:15:50.347Z,-2.65
2017-01-17T00:16:12.042Z,-2.64
2017-01-17T00:16:33.745Z,-2.64
2017-01-17T00:16:55.443Z,-2.63
2017-01-17T00:17:17.141Z,-2.65
2017-01-17T00:17:43.627Z,-2.70
2017-01-17T00:18:05.365Z,-2.73
2017-01-17T00:18:31.848Z,-2.69
2017-01-17T00:18:53.551Z,-2.70
2017-01-17T00:19:15.257Z,-2.73
2017-01-17T00:19:51.281Z,-2.68
2017-01-17T00:20:35.423Z,-2.65
2017-01-17T00:21:01.896Z,-2.69
2017-01-17T00:21:23.590Z,-2.68
2017-01-17T00:21:45.288Z,-2.61
2017-01-17T00:22:06.996Z,-2.59
2017-01-17T00:22:28.708Z,-2.64
2017-01-17T00:22:50.493Z,-2.67
2017-01-17T00:23:12.209Z,-2.63
2017-01-17T00:23:33.922Z,-2.56
2017-01-17T00:23:55.611Z,-2.61
2017-01-17T00:24:17.407Z,-2.64
2017-01-17T00:24:39.103Z,-2.69
2017-01-17T00:25:00.812Z,-2.69
2017-01-17T00:25:27.292Z,-2.71
2017-01-17T00:25:48.990Z,-2.75
2017-01-17T00:26:10.783Z,-2.71
2017-01-17T00:26:32.485Z,-2.70
2017-01-17T00:26:54.192Z,-2.69
2017-01-17T00:27:15.877Z,-2.67
2017-01-17T00:27:37.571Z,-2.67
2017-01-17T00:27:59.265Z,-2.67
2017-01-17T00:28:25.747Z,-2.61
2017-01-17T00:28:47.464Z,-2.60
2017-01-17T00:29:09.166Z,-2.59
2017-01-17T00:29:30.875Z,-2.57
2017-01-17T00:29:52.583Z,-2.55
2017-01-17T00:30:14.286Z,-2.57
2017-01-17T00:30:40.760Z,-2.59
2017-01-17T00:31:02.464Z,-2.59
2017-01-17T00:31:24.163Z,-2.59
2017-01-17T00:31:50.644Z,-2.63
2017-01-17T00:32:12.353Z,-2.65
2017-01-17T00:32:34.085Z,-2.69
2017-01-17T00:33:00.552Z,-2.71
2017-01-17T00:33:22.254Z,-2.72
2017-01-17T00:33:43.956Z,-2.70
2017-01-17T00:34:05.679Z,-2.73
2017-01-17T00:34:27.457Z,-2.72
2017-01-17T00:34:49.168Z,-2.71
2017-01-17T00:35:10.870Z,-2.67
2017-01-17T00:35:32.574Z,-2.66
2017-01-17T00:35:59.048Z,-2.66
2017-01-17T00:36:20.747Z,-2.71
2017-01-17T00:36:52.004Z,-2.73
2017-01-17T00:37:13.700Z,-2.69
2017-01-17T00:37:44.962Z,-2.72
2017-01-17T00:38:06.654Z,-2.69
2017-01-17T00:38:28.454Z,-2.68
2017-01-17T00:38:50.161Z,-2.62
2017-01-17T00:39:11.856Z,-2.61
2017-01-17T00:39:43.114Z,-2.59
2017-01-17T00:40:04.803Z,-2.57
2017-01-17T00:40:31.278Z,-2.56
2017-01-17T00:40:52.984Z,-2.51
2017-01-17T00:41:19.459Z,-2.50
2017-01-17T00:41:41.153Z,-2.49
2017-01-17T00:42:02.857Z,-2.56
2017-01-17T00:42:29.339Z,-2.53
2017-01-17T00:42:51.140Z,-2.50
2017-01-17T00:43:12.837Z,-2.46
2017-01-17T00:43:34.540Z,-2.46
2017-01-17T00:43:56.250Z,-2.44
2017-01-17T00:44:17.948Z,-2.44
2017-01-17T00:44:39.759Z,-2.47
2017-01-17T00:45:01.468Z,-2.44
2017-01-17T00:45:23.188Z,-2.48
2017-01-17T00:45:49.665Z,-2.45
2017-01-17T00:46:11.364Z,-2.40
2017-01-17T00:46:33.154Z,-2.42
2017-01-17T00:46:59.623Z,-2.37
2017-01-17T00:47:21.339Z,-2.36
2017-01-17T00:47:43.039Z,-2.39
2017-01-17T00:48:04.746Z,-2.34
2017-01-17T00:48:26.536Z,-2.35
2017-01-17T00:48:48.234Z,-2.28
2017-01-17T00:49:09.937Z,-2.28
2017-01-17T00:49:31.648Z,-2.25
2017-01-17T00:49:53.431Z,-2.22
2017-01-17T00:50:15.143Z,-2.23
2017-01-17T00:50:36.850Z,-2.23
2017-01-17T00:51:08.096Z,-2.19
2017-01-17T00:51:32.637Z,-2.23
2017-01-17T00:52:03.893Z,-2.25
2017-01-17T00:52:25.594Z,-2.23
2017-01-17T00:53:49.247Z,-2.23
2017-01-17T00:54:32.880Z,-2.20
2017-01-17T00:54:59.433Z,-2.18
2017-01-17T00:55:21.212Z,-2.15
2017-01-17T00:55:43.003Z,-2.18
2017-01-17T00:56:14.336Z,-2.20
2017-01-17T00:56:36.053Z,-2.22
2017-01-17T00:57:12.079Z,-2.21
2017-01-17T00:57:39.124Z,-2.16
2017-01-17T00:58:00.819Z,-2.18
2017-01-17T00:58:22.531Z,-2.20
2017-01-17T01:00:11.825Z,-2.21
2017-01-17T01:00:33.518Z,-2.19
2017-01-17T01:00:55.225Z,-2.25
2017-01-17T01:01:26.494Z,-2.23
2017-01-17T01:01:48.203Z,-2.20
2017-01-17T01:02:09.938Z,-2.19
2017-01-17T01:02:31.655Z,-2.14
2017-01-17T01:02:53.351Z,-2.14
2017-01-17T01:03:15.109Z,-2.15
2017-01-17T01:03:46.367Z,-2.20
2017-01-17T01:04:08.058Z,-2.18
2017-01-17T01:04:29.758Z,-2.17
2017-01-17T01:04:56.248Z,-2.13
2017-01-17T01:05:17.955Z,-2.12
2017-01-17T01:05:44.467Z,-2.12
2017-01-17T01:06:06.177Z,-2.14
2017-01-17T01:06:37.429Z,-2.14
2017-01-17T01:06:59.122Z,-2.13
2017-01-17T01:07:30.391Z,-2.07
2017-01-17T01:07:52.085Z,-2.11
2017-01-17T01:08:13.787Z,-2.11
2017-01-17T01:08:49.832Z,-2.07
2017-01-17T01:09:12.101Z,-2.10
2017-01-17T01:09:33.794Z,-2.14
2017-01-17T01:10:05.036Z,-2.13
2017-01-17T01:10:26.725Z,-2.12
2017-01-17T01:10:57.979Z,-2.11
2017-01-17T01:11:19.666Z,-2.12
2017-01-17T01:11:50.925Z,-2.05
2017-01-17T01:12:12.616Z,-2.03
2017-01-17T01:12:43.877Z,-2.03
2017-01-17T01:13:08.213Z,-2.06
2017-01-17T01:13:29.918Z,-2.06
2017-01-17T01:13:56.385Z,-2.07
2017-01-17T01:14:18.106Z,-2.10
2017-01-17T01:14:39.808Z,-2.07
2017-01-17T01:15:01.496Z,-2.04
2017-01-17T01:15:32.770Z,-2.11
2017-01-17T01:15:54.480Z,-2.12
2017-01-17T01:16:30.515Z,-2.10
2017-01-17T01:17:12.632Z,-2.10
2017-01-17T01:17:34.433Z,-2.06
2017-01-17T01:18:10.458Z,-2.00
2017-01-17T01:18:40.107Z,-1.97
2017-01-17T01:19:01.840Z,-1.97
2017-01-17T01:19:33.076Z,-2.02
2017-01-17T01:19:54.795Z,-2.02
2017-01-17T01:20:26.076Z,-2.03
2017-01-17T01:20:47.764Z,-2.03
2017-01-17T01:21:09.469Z,-2.05
2017-01-17T01:22:02.542Z,-2.06
2017-01-17T01:22:29.024Z,-2.06
2017-01-17T01:22:50.784Z,-2.06
2017-01-17T01:23:17.274Z,-2.02
2017-01-17T01:23:38.970Z,-1.97
2017-01-17T01:24:10.291Z,-1.96
2017-01-17T01:24:31.981Z,-2.00
2017-01-17T01:24:58.452Z,-1.95
2017-01-17T01:25:20.157Z,-1.97
2017-01-17T01:25:46.666Z,-1.94
2017-01-17T01:26:08.398Z,-1.90
2017-01-17T01:26:34.928Z,-1.86
2017-01-17T01:26:56.637Z,-1.86
2017-01-17T01:27:18.341Z,-1.85
2017-01-17T01:27:40.046Z,-1.91
2017-01-17T01:28:01.735Z,-1.95
2017-01-17T01:28:23.475Z,-1.92
2017-01-17T01:28:54.727Z,-1.91
2017-01-17T01:29:16.422Z,-1.91
2017-01-17T01:29:38.178Z,-1.90
2017-01-17T01:30:04.659Z,-1.92
2017-01-17T01:30:26.353Z,-1.94
2017-01-17T01:30:48.054Z,-1.89
2017-01-17T01:31:19.325Z,-1.97
2017-01-17T01:31:41.025Z,-1.99
2017-01-17T01:32:02.726Z,-1.98
2017-01-17T01:32:24.483Z,-1.89
2017-01-17T01:32:46.186Z,-1.85
2017-01-17T01:37:25.781Z,-1.94
2017-01-17T01:38:34.538Z,-1.94
2017-01-17T01:38:58.348Z,-1.92
2017-01-17T01:39:24.833Z,-1.89
2017-01-17T01:39:46.558Z,-1.87
2017-01-17T01:40:08.323Z,-1.85
2017-01-17T01:40:30.044Z,-1.86
2017-01-17T01:40:51.746Z,-1.86
2017-01-17T01:42:20.053Z,-1.90
2017-01-17T01:42:43.925Z,-1.84
2017-01-17T01:43:10.396Z,-1.85
2017-01-17T01:43:32.083Z,-1.87
2017-01-17T01:43:58.566Z,-1.89
2017-01-17T01:44:20.272Z,-1.83
2017-01-17T01:44:41.968Z,-1.81
2017-01-17T01:45:45.184Z,-1.85
2017-01-17T01:46:06.887Z,-1.86
2017-01-17T01:46:28.643Z,-1.86
2017-01-17T01:46:59.896Z,-1.85
2017-01-17T01:47:21.606Z,-1.83
2017-01-17T01:47:57.694Z,-1.81
2017-01-17T01:49:01.555Z,-1.88
2017-01-17T01:49:23.250Z,-1.90
2017-01-17T01:49:44.947Z,-1.88
2017-01-17T01:51:13.313Z,-1.79
2017-01-17T01:51:57.022Z,-1.85
2017-01-17T01:52:20.844Z,-1.83
2017-01-17T01:52:42.552Z,-1.76
2017-01-17T01:53:04.252Z,-1.74
2017-01-17T01:53:25.977Z,-1.77
2017-01-17T01:53:52.482Z,-1.78
2017-01-17T01:54:16.891Z,-1.79
2017-01-17T01:54:38.593Z,-1.83
2017-01-17T01:55:00.287Z,-1.83
2017-01-17T01:55:31.546Z,-1.83
2017-01-17T01:55:53.250Z,-1.80
2017-01-17T01:56:19.737Z,-1.73
2017-01-17T01:56:41.437Z,-1.72
2017-01-17T01:57:12.696Z,-1.78
2017-01-17T01:57:34.393Z,-1.83
2017-01-17T01:57:56.107Z,-1.83
2017-01-17T01:58:22.646Z,-1.86
2017-01-17T01:58:44.371Z,-1.81
2017-01-17T01:59:06.078Z,-1.80
2017-01-17T01:59:37.376Z,-1.77
2017-01-17T01:59:59.107Z,-1.72
2017-01-17T02:00:30.364Z,-1.68
2017-01-17T02:00:52.150Z,-1.71
2017-01-17T02:01:13.856Z,-1.74
2017-01-17T02:01:45.151Z,-1.82
2017-01-17T02:02:06.841Z,-1.83
2017-01-17T02:02:33.364Z,-1.84
2017-01-17T02:02:55.064Z,-1.78
2017-01-17T02:03:21.547Z,-1.75
2017-01-17T02:03:43.247Z,-1.77
2017-01-17T02:04:04.946Z,-1.75
2017-01-17T02:04:31.430Z,-1.74
2017-01-17T02:04:53.137Z,-1.71
2017-01-17T02:05:14.915Z,-1.72
2017-01-17T02:05:36.616Z,-1.72
2017-01-17T02:05:58.318Z,-1.74
2017-01-17T02:06:24.866Z,-1.76
2017-01-17T02:06:46.571Z,-1.80
2017-01-17T02:07:08.280Z,-1.79
2017-01-17T02:07:29.982Z,-1.76
2017-01-17T02:07:51.721Z,-1.75
2017-01-17T02:08:55.416Z,-1.79
2017-01-17T02:09:17.198Z,-1.78
2017-01-17T02:09:38.911Z,-1.80
2017-01-17T02:10:02.622Z,-1.76
2017-01-17T02:10:24.316Z,-1.77
2017-01-17T02:10:50.891Z,-1.74
2017-01-17T02:11:12.597Z,-1.75
2017-01-17T02:11:34.293Z,-1.73
2017-01-17T02:12:00.850Z,-1.68
2017-01-17T02:12:22.635Z,-1.75
2017-01-17T02:13:34.801Z,-1.77
2017-01-17T02:13:56.623Z,-1.75
2017-01-17T02:14:27.969Z,-1.74
2017-01-17T02:14:49.665Z,-1.71
2017-01-17T02:15:11.365Z,-1.71
2017-01-17T02:15:37.846Z,-1.72
2017-01-17T02:15:59.659Z,-1.70
2017-01-17T02:16:30.901Z,-1.66
2017-01-17T02:16:52.607Z,-1.66
2017-01-17T02:17:19.180Z,-1.65
2017-01-17T02:17:40.882Z,-1.63
2017-01-17T02:18:02.591Z,-1.66
2017-01-17T02:18:38.623Z,-1.66
2017-01-17T02:19:00.934Z,-1.64
2017-01-17T02:19:22.639Z,-1.63
2017-01-17T02:19:49.113Z,-1.66
2017-01-17T02:20:10.918Z,-1.66
2017-01-17T02:20:32.622Z,-1.68
2017-01-17T02:20:54.338Z,-1.68
2017-01-17T02:21:16.049Z,-1.64
2017-01-17T02:21:37.769Z,-1.68
2017-01-17T02:22:45.045Z,-1.65
2017-01-17T02:23:06.741Z,-1.64
2017-01-17T02:23:33.229Z,-1.58
2017-01-17T02:23:54.922Z,-1.58
2017-01-17T02:24:16.658Z,-1.56
2017-01-17T02:24:38.363Z,-1.55
2017-01-17T02:25:00.064Z,-1.60
2017-01-17T02:25:21.775Z,-1.61
2017-01-17T02:25:53.030Z,-1.61
2017-01-17T02:26:14.841Z,-1.56
2017-01-17T02:26:36.552Z,-1.56
2017-01-17T02:27:03.027Z,-1.55
2017-01-17T02:27:24.737Z,-1.56
2017-01-17T02:28:12.908Z,-1.61
2017-01-17T02:28:48.940Z,-1.60
2017-01-17T02:29:16.114Z,-1.56
2017-01-17T02:29:37.828Z,-1.60
2017-01-17T02:29:59.532Z,-1.62
2017-01-17T02:30:30.780Z,-1.57
2017-01-17T02:30:52.625Z,-1.56
2017-01-17T02:32:20.997Z,-1.61
2017-01-17T02:32:44.909Z,-1.56
2017-01-17T02:33:06.505Z,-1.55
2017-01-17T02:33:28.219Z,-1.60
2017-01-17T02:33:49.922Z,-1.57
2017-01-17T02:34:21.176Z,-1.60
2017-01-17T02:34:42.885Z,-1.60
2017-01-17T02:35:04.595Z,-1.60
2017-01-17T02:35:35.841Z,-1.62
2017-01-17T02:35:58.764Z,-1.59
2017-01-17T02:36:20.472Z,-1.60
2017-01-17T02:36:42.172Z,-1.60
2017-01-17T02:37:03.951Z,-1.58
2017-01-17T02:37:25.650Z,-1.57
2017-01-17T02:37:52.135Z,-1.56
2017-01-17T02:38:13.828Z,-1.56
2017-01-17T02:38:40.305Z,-1.53
2017-01-17T02:39:02.028Z,-1.53
2017-01-17T02:42:13.823Z,-1.61
2017-01-17T02:42:35.550Z,-1.62
2017-01-17T02:42:57.253Z,-1.61
2017-01-17T02:43:18.953Z,-1.58
2017-01-17T02:43:40.750Z,-1.57
2017-01-17T02:44:02.466Z,-1.56
2017-01-17T02:44:28.948Z,-1.57
2017-01-17T02:44:50.645Z,-1.53
2017-01-17T02:45:12.350Z,-1.50
2017-01-17T02:45:38.830Z,-1.60
2017-01-17T02:46:00.527Z,-1.58
2017-01-17T02:46:22.245Z,-1.55
2017-01-17T02:46:48.723Z,-1.55
2017-01-17T02:47:10.418Z,-1.57
2017-01-17T02:47:41.676Z,-1.58
2017-01-17T02:48:03.371Z,-1.58
2017-01-17T02:48:25.083Z,-1.59
2017-01-17T02:48:56.348Z,-1.58
2017-01-17T02:49:18.143Z,-1.57
2017-01-17T02:49:49.403Z,-1.59
2017-01-17T02:50:11.876Z,-1.61
2017-01-17T02:50:38.287Z,-1.62
2017-01-17T02:51:00.020Z,-1.61
2017-01-17T02:52:23.458Z,-1.57
2017-01-17T02:52:50.453Z,-1.55
2017-01-17T02:53:12.092Z,-1.56
2017-01-17T02:54:35.532Z,-1.52
2017-01-17T02:55:50.511Z,-1.65
2017-01-17T02:56:12.249Z,-1.59
2017-01-17T02:56:33.973Z,-1.57
2017-01-17T02:56:55.682Z,-1.59
2017-01-17T02:57:17.378Z,-1.55
2017-01-17T02:57:39.097Z,-1.53
2017-01-17T02:58:00.812Z,-1.55
2017-01-17T02:58:22.498Z,-1.58
2017-01-17T02:58:44.197Z,-1.60
2017-01-17T02:59:15.452Z,-1.60
2017-01-17T02:59:37.150Z,-1.63
2017-01-17T03:00:03.628Z,-1.65
2017-01-17T03:00:25.329Z,-1.66
2017-01-17T03:00:49.560Z,-1.63
2017-01-17T03:01:11.247Z,-1.61
2017-01-17T03:01:47.304Z,-1.57
2017-01-17T03:02:09.650Z,-1.57
2017-01-17T03:02:31.347Z,-1.53
2017-01-17T03:02:57.823Z,-1.58
2017-01-17T03:03:19.525Z,-1.59
2017-01-17T03:03:41.222Z,-1.60
2017-01-17T03:04:02.930Z,-1.59
2017-01-17T03:04:24.625Z,-1.60
2017-01-17T03:04:46.338Z,-1.61
2017-01-17T03:05:17.598Z,-1.62
2017-01-17T03:05:39.289Z,-1.60
2017-01-17T03:06:10.534Z,-1.57
2017-01-17T03:06:32.236Z,-1.54
2017-01-17T03:06:58.715Z,-1.53
2017-01-17T03:09:22.860Z,-1.50
2017-01-17T03:09:44.653Z,-1.49
2017-01-17T03:10:11.225Z,-1.51
2017-01-17T03:10:33.022Z,-1.52
2017-01-17T03:10:54.828Z,-1.51
2017-01-17T03:11:16.658Z,-1.52
2017-01-17T03:11:38.470Z,-1.52
2017-01-17T03:12:05.040Z,-1.49
2017-01-17T03:12:26.819Z,-1.49
2017-01-17T03:12:53.382Z,-1.53
2017-01-17T03:13:15.162Z,-1.50
2017-01-17T03:13:41.638Z,-1.52
2017-01-17T03:14:03.348Z,-1.47
2017-01-17T03:14:25.142Z,-1.48
2017-01-17T03:15:01.168Z,-1.51
2017-01-17T03:16:05.208Z,-1.60
2017-01-17T03:16:48.850Z,-1.62
2017-01-17T03:17:10.642Z,-1.62
2017-01-17T03:17:32.483Z,-1.63
2017-01-17T03:17:54.320Z,-1.65
2017-01-17T03:18:20.879Z,-1.65
2017-01-17T03:18:42.673Z,-1.67
2017-01-17T03:19:04.466Z,-1.69
2017-01-17T03:19:40.499Z,-1.65
2017-01-17T03:20:27.571Z,-1.64
2017-01-17T03:20:49.374Z,-1.62
2017-01-17T03:21:11.171Z,-1.65
2017-01-17T03:21:42.509Z,-1.63
2017-01-17T03:22:04.299Z,-1.61
2017-01-17T03:22:35.554Z,-1.58
2017-01-17T03:22:57.279Z,-1.55
2017-01-17T03:24:09.656Z,-1.57
2017-01-17T03:24:31.600Z,-1.55
2017-01-17T03:25:44.953Z,-1.57
2017-01-17T03:26:11.510Z,-1.59
2017-01-17T03:26:33.450Z,-1.60
2017-01-17T03:26:55.312Z,-1.61
2017-01-17T03:27:21.804Z,-1.60
2017-01-17T03:27:43.659Z,-1.63
2017-01-17T03:28:05.464Z,-1.66
2017-01-17T03:28:36.699Z,-1.67
2017-01-17T03:28:58.403Z,-1.69
2017-01-17T03:30:05.930Z,-1.63
2017-01-17T03:30:27.680Z,-1.61
2017-01-17T03:30:54.338Z,-1.55
2017-01-17T03:31:16.039Z,-1.55
2017-01-17T03:31:42.607Z,-1.52
2017-01-17T03:32:09.146Z,-1.57
2017-01-17T03:32:31.538Z,-1.59
2017-01-17T03:32:58.069Z,-1.58
2017-01-17T03:33:20.031Z,-1.62
2017-01-17T03:33:42.069Z,-1.62
2017-01-17T03:34:03.834Z,-1.65
2017-01-17T03:34:25.669Z,-1.67
2017-01-17T03:34:47.612Z,-1.65
2017-01-17T03:35:18.868Z,-1.60
2017-01-17T03:35:40.867Z,-1.60
2017-01-17T03:37:14.307Z,-1.57
2017-01-17T03:37:43.057Z,-1.59
2017-01-17T03:38:09.645Z,-1.58
2017-01-17T03:38:31.725Z,-1.55
2017-01-17T03:39:02.979Z,-1.53
2017-01-17T03:39:24.886Z,-1.54
2017-01-17T03:39:46.719Z,-1.55
2017-01-17T03:40:17.972Z,-1.63
2017-01-17T03:40:39.766Z,-1.65
2017-01-17T03:41:52.066Z,-1.62
2017-01-17T03:42:13.927Z,-1.69
2017-01-17T03:43:21.290Z,-1.64
2017-01-17T03:43:43.008Z,-1.63
2017-01-17T03:44:09.546Z,-1.65
2017-01-17T03:44:36.057Z,-1.63
2017-01-17T03:45:07.339Z,-1.61
2017-01-17T03:45:29.100Z,-1.57
2017-01-17T03:46:00.396Z,-1.56
2017-01-17T03:46:22.086Z,-1.55
2017-01-17T03:46:43.834Z,-1.57
2017-01-17T03:47:06.074Z,-1.56
2017-01-17T03:47:27.844Z,-1.61
2017-01-17T03:47:54.412Z,-1.59
2017-01-17T03:48:16.391Z,-1.58
2017-01-17T03:48:47.639Z,-1.60
2017-01-17T03:49:09.480Z,-1.59
2017-01-17T03:49:40.807Z,-1.59
2017-01-17T03:50:02.561Z,-1.56
2017-01-17T03:50:29.049Z,-1.58
2017-01-17T03:50:50.753Z,-1.56
2017-01-17T03:51:12.726Z,-1.55
2017-01-17T03:51:39.261Z,-1.52
2017-01-17T03:52:00.985Z,-1.57
2017-01-17T03:52:22.831Z,-1.55
2017-01-17T03:52:49.470Z,-1.57
2017-01-17T03:53:11.316Z,-1.58
2017-01-17T03:53:47.846Z,-1.52
2017-01-17T03:54:14.910Z,-1.56
2017-01-17T03:54:36.636Z,-1.57
2017-01-17T03:54:58.649Z,-1.57
2017-01-17T03:55:25.195Z,-1.52
2017-01-17T03:55:46.913Z,-1.51
2017-01-17T03:56:13.599Z,-1.53
2017-01-17T03:56:35.373Z,-1.53
2017-01-17T03:56:57.161Z,-1.53
2017-01-17T03:58:02.478Z,-1.53
2017-01-17T03:58:24.377Z,-1.55
2017-01-17T03:58:47.066Z,-1.53
2017-01-17T03:59:08.772Z,-1.52
2017-01-17T03:59:30.540Z,-1.50
2017-01-17T03:59:57.268Z,-1.51
2017-01-17T04:00:23.807Z,-1.49
2017-01-17T04:00:45.550Z,-1.49
2017-01-17T04:01:21.717Z,-1.47
2017-01-17T04:01:44.094Z,-1.49
2017-01-17T04:02:05.958Z,-1.49
2017-01-17T04:02:32.478Z,-1.53
2017-01-17T04:02:54.231Z,-1.52
2017-01-17T04:03:30.330Z,-1.56
2017-01-17T04:03:57.366Z,-1.58
2017-01-17T04:04:19.117Z,-1.58
2017-01-17T04:05:26.386Z,-1.53
2017-01-17T04:05:48.241Z,-1.52
2017-01-17T04:06:14.763Z,-1.52
2017-01-17T04:06:36.532Z,-1.52
2017-01-17T04:07:03.141Z,-1.50
2017-01-17T04:07:24.826Z,-1.51
2017-01-17T04:08:27.496Z,-1.57
2017-01-17T04:08:49.444Z,-1.59
2017-01-17T04:10:01.548Z,-1.52
2017-01-17T04:10:23.259Z,-1.55
2017-01-17T04:11:35.313Z,-1.52
2017-01-17T04:11:57.086Z,-1.49
2017-01-17T04:12:33.231Z,-1.52
2017-01-17T04:13:00.599Z,-1.50
2017-01-17T04:13:22.318Z,-1.48
2017-01-17T04:13:44.061Z,-1.45
2017-01-17T04:14:10.811Z,-1.47
2017-01-17T04:14:32.551Z,-1.51
2017-01-17T04:15:39.982Z,-1.54
2017-01-17T04:16:01.740Z,-1.54
2017-01-17T04:16:23.533Z,-1.52
2017-01-17T04:16:54.840Z,-1.50
2017-01-17T04:17:16.539Z,-1.51
2017-01-17T04:17:43.172Z,-1.49
2017-01-17T04:18:04.943Z,-1.46
2017-01-17T04:18:36.181Z,-1.47
2017-01-17T04:18:57.951Z,-1.50
2017-01-17T04:19:19.762Z,-1.47
2017-01-17T04:19:46.232Z,-1.46
2017-01-17T04:20:07.945Z,-1.49
2017-01-17T04:20:29.695Z,-1.53
2017-01-17T04:21:00.938Z,-1.55
2017-01-17T04:21:22.634Z,-1.57
2017-01-17T04:21:44.375Z,-1.53
2017-01-17T04:22:15.618Z,-1.52
2017-01-17T04:22:37.346Z,-1.53
2017-01-17T04:23:49.403Z,-1.49
2017-01-17T04:24:11.106Z,-1.48
2017-01-17T04:24:42.365Z,-1.47
2017-01-17T04:25:04.437Z,-1.49
2017-01-17T04:26:11.866Z,-1.45
2017-01-17T04:26:34.034Z,-1.45
2017-01-17T04:27:36.600Z,-1.51
2017-01-17T04:27:58.308Z,-1.53
2017-01-17T04:28:20.017Z,-1.54
2017-01-17T04:28:56.110Z,-1.50
2017-01-17T04:29:23.103Z,-1.55
2017-01-17T04:29:45.217Z,-1.54
2017-01-17T04:30:11.751Z,-1.52
2017-01-17T04:30:33.819Z,-1.50
2017-01-17T04:30:55.538Z,-1.51
2017-01-17T04:31:17.241Z,-1.51
2017-01-17T04:31:39.119Z,-1.53
2017-01-17T04:32:00.916Z,-1.53
2017-01-17T04:32:32.199Z,-1.52
2017-01-17T04:32:54.079Z,-1.53
2017-01-17T04:33:25.476Z,-1.54
2017-01-17T04:33:47.206Z,-1.52
2017-01-17T04:34:08.916Z,-1.55
2017-01-17T04:34:31.007Z,-1.51
2017-01-17T04:34:55.368Z,-1.52
2017-01-17T04:35:17.096Z,-1.54
2017-01-17T04:35:38.833Z,-1.51
2017-01-17T04:36:10.177Z,-1.51
2017-01-17T04:36:31.906Z,-1.52
2017-01-17T04:36:53.631Z,-1.55
2017-01-17T04:37:15.339Z,-1.52
2017-01-17T04:37:40.088Z,-1.52
2017-01-17T04:38:06.587Z,-1.51
2017-01-17T04:38:28.288Z,-1.51
2017-01-17T04:38:59.637Z,-1.51
2017-01-17T04:39:21.326Z,-1.51
2017-01-17T04:39:47.808Z,-1.54
2017-01-17T04:40:09.502Z,-1.56
2017-01-17T04:40:42.969Z,-1.58
2017-01-17T04:41:45.528Z,-1.56
2017-01-17T04:42:12.100Z,-1.57
2017-01-17T04:42:33.804Z,-1.56
2017-01-17T04:43:05.061Z,-1.53
2017-01-17T04:43:26.863Z,-1.51
2017-01-17T04:43:48.568Z,-1.48
2017-01-17T04:44:10.276Z,-1.44
2017-01-17T04:44:31.972Z,-1.45
2017-01-17T04:44:58.547Z,-1.49
2017-01-17T04:45:20.242Z,-1.53
2017-01-17T04:45:51.505Z,-1.52
2017-01-17T04:46:13.286Z,-1.54
2017-01-17T04:47:20.558Z,-1.50
2017-01-17T04:47:42.348Z,-1.49
2017-01-17T04:48:08.837Z,-1.50
2017-01-17T04:48:30.546Z,-1.48
2017-01-17T04:48:57.113Z,-1.45
2017-01-17T04:49:18.802Z,-1.42
2017-01-17T04:49:40.504Z,-1.45
2017-01-17T04:50:06.994Z,-1.45
2017-01-17T04:50:28.806Z,-1.44
2017-01-17T04:51:00.063Z,-1.43
2017-01-17T04:51:21.768Z,-1.44
2017-01-17T04:51:53.017Z,-1.47
2017-01-17T04:52:14.742Z,-1.45
2017-01-17T04:52:45.999Z,-1.43
2017-01-17T04:53:07.825Z,-1.47
2017-01-17T04:53:29.528Z,-1.47
2017-01-17T04:53:51.240Z,-1.45
2017-01-17T04:54:12.937Z,-1.48
2017-01-17T04:54:34.732Z,-1.49
2017-01-17T04:55:10.768Z,-1.45
2017-01-17T04:55:37.805Z,-1.38
2017-01-17T04:55:59.606Z,-1.40
2017-01-17T04:56:30.870Z,-1.42
2017-01-17T04:56:52.571Z,-1.39
2017-01-17T04:57:14.379Z,-1.39
2017-01-17T04:57:40.854Z,-1.40
2017-01-17T04:58:02.578Z,-1.40
2017-01-17T04:58:24.419Z,-1.40
2017-01-17T04:58:46.156Z,-1.43
2017-01-17T04:59:07.852Z,-1.49
2017-01-17T04:59:29.549Z,-1.50
2017-01-17T04:59:51.340Z,-1.52
2017-01-17T05:00:13.042Z,-1.50
2017-01-17T05:00:34.745Z,-1.49
2017-01-17T05:01:10.770Z,-1.46
2017-01-17T05:01:38.032Z,-1.44
2017-01-17T05:01:59.744Z,-1.43
2017-01-17T05:02:21.545Z,-1.43
2017-01-17T05:02:48.038Z,-1.45
2017-01-17T05:03:09.737Z,-1.37
2017-01-17T05:03:31.443Z,-1.37
2017-01-17T05:03:58.021Z,-1.36
2017-01-17T05:04:19.718Z,-1.38
2017-01-17T05:05:22.316Z,-1.39
2017-01-17T05:05:48.877Z,-1.37
2017-01-17T05:06:12.815Z,-1.39
2017-01-17T05:06:39.379Z,-1.38
2017-01-17T05:07:01.086Z,-1.40
2017-01-17T05:07:27.556Z,-1.40
2017-01-17T05:07:49.248Z,-1.41
2017-01-17T05:08:11.042Z,-1.37
2017-01-17T05:08:32.743Z,-1.38
2017-01-17T05:08:54.444Z,-1.38
2017-01-17T05:09:21.021Z,-1.41
2017-01-17T05:09:42.717Z,-1.37
2017-01-17T05:10:04.426Z,-1.36
2017-01-17T05:10:26.134Z,-1.34
2017-01-17T05:10:47.932Z,-1.35
2017-01-17T05:11:19.177Z,-1.37
2017-01-17T05:11:40.919Z,-1.42
2017-01-17T05:12:14.855Z,-1.43
2017-01-17T05:12:41.353Z,-1.44
2017-01-17T05:13:03.046Z,-1.40
2017-01-17T05:13:24.751Z,-1.41
2017-01-17T05:13:51.242Z,-1.43
2017-01-17T05:14:13.033Z,-1.44
2017-01-17T05:14:39.513Z,-1.40
2017-01-17T05:15:01.213Z,-1.44
2017-01-17T05:15:32.548Z,-1.47
2017-01-17T05:15:54.256Z,-1.49
2017-01-17T05:16:20.844Z,-1.46
2017-01-17T05:16:42.524Z,-1.44
2017-01-17T05:17:13.776Z,-1.42
2017-01-17T05:17:35.474Z,-1.42
2017-01-17T05:17:57.270Z,-1.40
2017-01-17T05:18:23.757Z,-1.39
2017-01-17T05:18:45.447Z,-1.39
2017-01-17T05:19:07.250Z,-1.38
2017-01-17T05:19:28.957Z,-1.38
2017-01-17T05:19:50.652Z,-1.38
2017-01-17T05:20:24.527Z,-1.37
2017-01-17T05:20:51.085Z,-1.39
2017-01-17T05:21:12.799Z,-1.40
2017-01-17T05:22:15.410Z,-1.40
2017-01-17T05:22:37.104Z,-1.39
2017-01-17T05:22:58.810Z,-1.37
2017-01-17T05:23:20.525Z,-1.38
2017-01-17T05:23:42.251Z,-1.38
2017-01-17T05:24:18.288Z,-1.42
2017-01-17T05:24:45.338Z,-1.42
2017-01-17T05:25:07.138Z,-1.42
2017-01-17T05:25:43.174Z,-1.42
2017-01-17T05:26:05.434Z,-1.44
2017-01-17T05:26:27.235Z,-1.43
2017-01-17T05:26:58.502Z,-1.42
2017-01-17T05:27:20.210Z,-1.42
2017-01-17T05:27:51.514Z,-1.42
2017-01-17T05:28:13.184Z,-1.42
2017-01-17T05:28:49.208Z,-1.39
2017-01-17T05:29:16.262Z,-1.40
2017-01-17T05:29:37.968Z,-1.40
2017-01-17T05:29:59.676Z,-1.43
2017-01-17T05:30:31.017Z,-1.44
2017-01-17T05:30:54.743Z,-1.42
2017-01-17T05:31:16.511Z,-1.39
2017-01-17T05:31:38.198Z,-1.38
2017-01-17T05:32:09.546Z,-1.37
2017-01-17T05:32:31.242Z,-1.37
2017-01-17T05:32:57.730Z,-1.38
2017-01-17T05:33:19.429Z,-1.39
2017-01-17T05:33:46.013Z,-1.38
2017-01-17T05:34:07.714Z,-1.42
2017-01-17T05:34:29.411Z,-1.44
2017-01-17T05:34:55.917Z,-1.48
2017-01-17T05:35:17.690Z,-1.48
2017-01-17T05:35:48.953Z,-1.50
2017-01-17T05:36:10.668Z,-1.50
2017-01-17T05:36:32.441Z,-1.49
2017-01-17T05:36:54.152Z,-1.45
2017-01-17T05:37:18.543Z,-1.43
2017-01-17T05:37:40.472Z,-1.40
2017-01-17T05:38:28.681Z,-1.37
2017-01-17T05:38:55.162Z,-1.39
2017-01-17T05:39:19.477Z,-1.41
2017-01-17T05:39:41.035Z,-1.38
2017-01-17T05:40:02.719Z,-1.38
2017-01-17T05:40:24.445Z,-1.36
2017-01-17T05:40:55.696Z,-1.34
2017-01-17T05:41:17.386Z,-1.37
2017-01-17T05:41:39.196Z,-1.38
2017-01-17T05:42:05.680Z,-1.43
2017-01-17T05:42:27.372Z,-1.44
2017-01-17T05:42:53.852Z,-1.44
2017-01-17T05:43:15.555Z,-1.44
2017-01-17T05:43:37.264Z,-1.44
2017-01-17T05:43:58.973Z,-1.44
2017-01-17T05:44:20.682Z,-1.42
2017-01-17T05:44:51.920Z,-1.40
2017-01-17T05:45:13.615Z,-1.38
2017-01-17T05:45:35.327Z,-1.37
2017-01-17T05:46:01.818Z,-1.37
2017-01-17T05:46:23.517Z,-1.38
2017-01-17T05:46:45.229Z,-1.36
2017-01-17T05:47:11.836Z,-1.39
2017-01-17T05:47:34.909Z,-1.38
2017-01-17T05:47:56.768Z,-1.36
2017-01-17T05:48:18.568Z,-1.35
2017-01-17T05:48:54.603Z,-1.37
2017-01-17T05:49:21.856Z,-1.37
2017-01-17T05:49:43.672Z,-1.38
2017-01-17T05:50:55.817Z,-1.40
2017-01-17T05:51:17.531Z,-1.38
2017-01-17T05:51:39.337Z,-1.38
2017-01-17T05:52:01.059Z,-1.39
2017-01-17T05:52:22.770Z,-1.38
2017-01-17T05:52:44.476Z,-1.38